Time;durP1;ratioP1;P1;durP2;ratioP2;P2;SDS_P1;SDS_P2;PMS_P1;PMS_P2;Temp;Humidity;BMP_temperature;BMP_pressure;BME280_temperature;BME280_humidity;BME280_pressure;Samples;Min_cycle;Max_cycle;Signal;HPM_P1;HPM_P2
2021/05/12 00:02:19;;;;;;;8.20;2.40;;;;;;;21.76;43.57;99076.47;4932748;28;98082;-78
2021/05/12 00:04:44;;;;;;;4.55;2.15;;;;;;;21.82;43.89;99083.03;4933645;28;96600;-78
2021/05/12 00:07:10;;;;;;;7.97;3.13;;;;;;;21.68;43.73;99077.25;4934693;28;97000;-78
2021/05/12 00:09:37;;;;;;;5.93;2.92;;;;;;;21.41;44.28;99067.47;4920694;28;101040;-78
2021/05/12 00:12:03;;;;;;;6.10;2.33;;;;;;;21.32;44.69;99064.84;4936238;28;98144;-80
2021/05/12 00:14:31;;;;;;;5.20;2.63;;;;;;;21.41;44.56;99067.47;4936930;28;97217;-78
2021/05/12 00:16:59;;;;;;;4.50;2.20;;;;;;;21.42;44.59;99073.66;4937036;28;97110;-78
2021/05/12 00:19:25;;;;;;;4.72;2.80;;;;;;;21.57;44.30;99072.13;4935999;28;99153;-78
2021/05/12 00:21:57;;;;;;;11.10;3.30;;;;;;;21.48;44.34;99076.53;4936745;28;97874;-79
2021/05/12 00:24:22;;;;;;;5.07;2.42;;;;;;;21.55;44.67;99076.78;4936002;28;96828;-79
2021/05/12 00:26:48;;;;;;;4.60;2.53;;;;;;;21.47;44.72;99074.88;4920545;28;96854;-78
2021/05/12 00:29:15;;;;;;;6.00;3.03;;;;;;;21.41;44.72;99077.28;4935599;28;101088;-76
2021/05/12 00:31:41;;;;;;;10.23;2.90;;;;;;;21.40;44.91;99084.47;4920035;28;101391;-78
2021/05/12 00:34:07;;;;;;;5.75;2.65;;;;;;;21.34;45.05;99078.88;4935678;28;96608;-79
2021/05/12 00:36:33;;;;;;;4.95;2.78;;;;;;;21.13;45.45;99076.50;4920623;28;96674;-79
2021/05/12 00:39:02;;;;;;;6.55;2.58;;;;;;;20.97;45.96;99085.13;4920079;28;101654;-76
2021/05/12 00:41:28;;;;;;;8.35;2.42;;;;;;;20.99;45.92;99076.00;4919821;28;101248;-76
2021/05/12 00:43:53;;;;;;;7.72;2.55;;;;;;;20.95;46.06;99079.94;4938906;28;97037;-76
2021/05/12 00:46:19;;;;;;;4.88;2.40;;;;;;;20.88;46.21;99078.00;4971667;28;97186;-76
2021/05/12 00:48:45;;;;;;;9.77;2.60;;;;;;;20.78;46.10;99078.91;4939341;28;101555;-76
2021/05/12 00:51:10;;;;;;;6.63;2.58;;;;;;;20.86;46.26;99082.69;4971181;28;101085;-76
2021/05/12 00:53:36;;;;;;;8.32;2.97;;;;;;;20.78;46.29;99086.91;4939773;28;97158;-76
2021/05/12 00:56:03;;;;;;;6.53;2.38;;;;;;;20.72;46.39;99095.50;4939191;28;97185;-76
2021/05/12 00:58:29;;;;;;;5.07;2.65;;;;;;;20.66;46.54;99095.25;4971663;28;98434;-76
2021/05/12 01:00:55;;;;;;;5.97;2.60;;;;;;;20.54;47.04;99100.75;4955993;28;98593;-76
2021/05/12 01:03:21;;;;;;;7.70;2.88;;;;;;;20.39;47.28;99102.19;4938512;28;97010;-76
2021/05/12 01:05:49;;;;;;;8.15;3.92;;;;;;;20.48;47.03;99097.81;4939297;28;97165;-76
2021/05/12 01:08:16;;;;;;;7.68;4.03;;;;;;;20.42;47.24;99106.34;4971892;28;98090;-76
2021/05/12 01:10:41;;;;;;;5.88;4.00;;;;;;;20.33;47.43;99103.59;4955634;28;97881;-76
2021/05/12 01:13:08;;;;;;;6.35;2.72;;;;;;;20.22;47.69;99101.09;4955152;28;96611;-77
2021/05/12 01:15:34;;;;;;;5.35;2.70;;;;;;;20.07;48.11;99103.38;4955422;28;97017;-76
2021/05/12 01:18:14;;;;;;;7.18;2.72;;;;;;;20.32;47.53;99107.22;4954092;28;101564;-76
2021/05/12 01:20:52;;;;;;;6.25;2.78;;;;;;;20.35;47.57;99100.78;4971731;28;98119;-76
2021/05/12 01:23:19;;;;;;;9.73;4.85;;;;;;;20.21;47.94;99109.22;4970189;28;97186;-76
2021/05/12 01:25:46;;;;;;;9.77;4.50;;;;;;;20.20;47.82;99103.03;4955600;28;97181;-76
2021/05/12 01:28:12;;;;;;;4.63;3.08;;;;;;;19.97;48.31;99099.84;4938239;28;100955;-76
2021/05/12 01:30:38;;;;;;;8.20;3.13;;;;;;;19.85;48.64;99106.31;4954887;28;101405;-77
2021/05/12 01:33:03;;;;;;;5.35;2.60;;;;;;;19.76;48.78;99101.84;4954410;28;97056;-77
2021/05/12 01:35:29;;;;;;;3.42;2.50;;;;;;;19.66;49.22;99097.34;4953469;28;97406;-76
2021/05/12 01:37:55;;;;;;;5.60;2.60;;;;;;;19.55;49.26;99096.63;4938596;28;101597;-76
2021/05/12 01:40:21;;;;;;;8.90;2.75;;;;;;;19.44;49.56;99087.78;4970463;28;97290;-77
2021/05/12 01:42:46;;;;;;;7.00;2.72;;;;;;;19.42;49.73;99084.41;4938744;28;96910;-78
2021/05/12 01:45:13;;;;;;;6.47;3.03;;;;;;;19.38;49.94;99092.81;4954084;28;96839;-77
2021/05/12 01:47:38;;;;;;;3.83;2.95;;;;;;;19.38;49.92;99092.81;4954945;28;98225;-76
2021/05/12 01:50:07;;;;;;;6.25;2.97;;;;;;;19.37;49.96;99091.09;4938808;28;101705;-76
2021/05/12 01:52:46;;;;;;;6.45;2.53;;;;;;;19.31;50.39;99099.66;4954374;28;96656;-76
2021/05/12 01:55:13;;;;;;;7.53;2.88;;;;;;;19.32;50.19;99104.00;4954064;28;96688;-77
2021/05/12 01:57:41;;;;;;;6.55;3.10;;;;;;;19.37;50.04;99099.09;4937885;28;101925;-76
2021/05/12 02:00:21;;;;;;;5.57;2.60;;;;;;;19.36;50.25;99100.09;4954407;28;101298;-76
2021/05/12 02:02:47;;;;;;;8.45;3.33;;;;;;;19.33;50.33;99092.38;4954847;28;96830;-76
2021/05/12 02:05:16;;;;;;;4.57;2.95;;;;;;;19.27;50.39;99088.44;4938215;28;96753;-77
2021/05/12 02:07:41;;;;;;;5.38;2.60;;;;;;;19.35;50.09;99082.44;4938225;28;101393;-76
2021/05/12 02:10:07;;;;;;;7.03;2.70;;;;;;;19.20;50.60;99085.50;4938264;28;101898;-76
2021/05/12 02:12:33;;;;;;;4.32;2.70;;;;;;;19.10;50.74;99089.94;4953991;28;97283;-76
2021/05/12 02:14:59;;;;;;;6.00;2.97;;;;;;;19.15;50.76;99089.56;4954820;28;96934;-76
2021/05/12 02:17:24;;;;;;;4.85;3.30;;;;;;;19.13;50.71;99097.66;4937302;28;101207;-76
2021/05/12 02:19:50;;;;;;;6.43;3.40;;;;;;;19.01;51.09;99098.75;4937809;28;101879;-76
2021/05/12 02:22:15;;;;;;;3.83;2.50;;;;;;;19.00;51.12;99094.41;4953054;28;97216;-77
2021/05/12 02:24:41;;;;;;;8.02;3.03;;;;;;;19.10;50.90;99102.41;4937387;28;97232;-76
2021/05/12 02:27:06;;;;;;;7.57;2.90;;;;;;;19.14;51.00;99104.66;4937905;28;101009;-76
2021/05/12 02:29:32;;;;;;;9.10;2.88;;;;;;;19.22;50.73;99103.97;4937048;28;101820;-76
2021/05/12 02:31:58;;;;;;;6.65;2.92;;;;;;;19.10;50.98;99095.25;4954318;28;96546;-76
2021/05/12 02:34:23;;;;;;;5.95;2.95;;;;;;;19.00;51.18;99089.94;4953674;28;96780;-76
2021/05/12 02:36:49;;;;;;;6.65;2.72;;;;;;;19.16;50.96;99092.06;4937733;28;101742;-76
2021/05/12 02:39:14;;;;;;;5.38;3.17;;;;;;;19.03;51.39;99088.81;4953625;28;101443;-78
2021/05/12 02:41:40;;;;;;;5.15;3.13;;;;;;;18.97;51.30;99092.88;4954536;28;96532;-76
2021/05/12 02:44:05;;;;;;;6.40;3.10;;;;;;;18.89;51.56;99087.38;4954027;28;97139;-76
2021/05/12 02:46:31;;;;;;;7.88;3.08;;;;;;;18.82;51.79;99093.34;4936321;28;100984;-76
2021/05/12 02:48:56;;;;;;;10.45;2.90;;;;;;;18.87;51.73;99099.94;4937512;28;101543;-76
2021/05/12 02:51:22;;;;;;;8.20;3.15;;;;;;;18.76;52.10;99105.34;4936860;28;97248;-76
2021/05/12 02:53:48;;;;;;;7.22;2.70;;;;;;;18.94;52.03;99105.59;4937635;28;96898;-76
2021/05/12 02:56:13;;;;;;;6.63;3.15;;;;;;;18.92;51.85;99100.41;4953742;28;98554;-79
2021/05/12 02:58:39;;;;;;;8.05;3.42;;;;;;;18.96;52.06;99099.13;4969902;28;101347;-76
2021/05/12 03:01:05;;;;;;;7.40;3.38;;;;;;;18.96;52.08;99109.78;4937777;28;96978;-77
2021/05/12 03:03:30;;;;;;;7.63;3.05;;;;;;;18.94;52.22;99146.31;4953107;28;97050;-76
2021/05/12 03:05:56;;;;;;;5.32;2.80;;;;;;;18.98;51.99;99152.19;4969789;28;101280;-76
2021/05/12 03:08:21;;;;;;;7.05;3.35;;;;;;;19.11;51.52;99147.50;4936436;28;101419;-76
2021/05/12 03:10:48;;;;;;;6.03;3.15;;;;;;;19.09;52.03;99136.16;4936936;28;97822;-76
2021/05/12 03:13:13;;;;;;;5.88;3.10;;;;;;;19.14;51.99;99144.56;4953447;28;97157;-78
2021/05/12 03:15:39;;;;;;;9.20;3.20;;;;;;;19.21;51.71;99153.69;4952560;28;101662;-76
2021/05/12 03:18:05;;;;;;;8.93;3.72;;;;;;;19.29;51.47;99146.84;4937131;28;101730;-76
2021/05/12 03:20:31;;;;;;;7.95;3.50;;;;;;;19.17;52.00;99154.09;4952931;28;96884;-76
2021/05/12 03:22:57;;;;;;;7.13;3.33;;;;;;;19.09;52.40;99157.41;4969654;28;96836;-76
2021/05/12 03:25:23;;;;;;;9.80;3.05;;;;;;;19.05;52.45;99155.16;4952507;28;101380;-77
2021/05/12 03:27:49;;;;;;;11.68;3.70;;;;;;;19.07;52.66;99154.03;4970238;28;98148;-77
2021/05/12 03:30:18;;;;;;;9.35;3.67;;;;;;;19.09;52.51;99156.59;4936960;28;96592;-77
2021/05/12 03:32:43;;;;;;;12.32;3.30;;;;;;;18.99;53.00;99160.06;4953392;28;96746;-76
2021/05/12 03:35:10;;;;;;;8.80;3.65;;;;;;;19.03;53.19;99165.09;4936457;28;100709;-76
2021/05/12 03:37:35;;;;;;;14.23;4.00;;;;;;;18.99;54.34;99167.16;4952545;28;97988;-76
2021/05/12 03:40:03;;;;;;;8.57;4.07;;;;;;;19.01;55.42;99173.19;4953139;28;96696;-76
2021/05/12 03:42:28;;;;;;;8.48;4.60;;;;;;;18.98;56.61;99179.63;4951712;28;96920;-77
2021/05/12 03:44:56;;;;;;;16.65;4.40;;;;;;;19.04;56.91;99180.91;4953017;28;100464;-76
2021/05/12 03:47:22;;;;;;;7.35;4.50;;;;;;;19.03;57.79;99181.91;4952488;28;100986;-77
2021/05/12 03:49:47;;;;;;;8.35;4.60;;;;;;;19.14;57.05;99180.94;4936804;28;97127;-76
2021/05/12 03:52:13;;;;;;;10.77;4.75;;;;;;;19.28;57.21;99182.41;4970160;28;96857;-76
2021/05/12 03:54:38;;;;;;;8.07;4.00;;;;;;;19.31;57.98;99172.31;4952073;28;101274;-77
2021/05/12 03:57:04;;;;;;;15.00;4.55;;;;;;;19.30;58.48;99188.44;4952836;28;100507;-76
2021/05/12 03:59:30;;;;;;;22.10;5.82;;;;;;;19.21;59.08;99184.75;4951906;28;97058;-77
2021/05/12 04:01:55;;;;;;;18.33;5.47;;;;;;;19.21;59.75;99182.94;4936611;28;97789;-76
2021/05/12 04:04:21;;;;;;;15.25;5.40;;;;;;;19.32;59.75;99186.47;4967798;28;101020;-78
2021/05/12 04:06:48;;;;;;;13.43;5.53;;;;;;;19.37;59.54;99179.78;4969403;28;98184;-77
2021/05/12 04:09:14;;;;;;;10.57;4.65;;;;;;;19.37;60.16;99178.91;4969420;28;97473;-77
2021/05/12 04:11:41;;;;;;;16.20;5.10;;;;;;;19.41;60.36;99186.50;4935653;28;97387;-76
2021/05/12 04:14:07;;;;;;;11.48;5.03;;;;;;;19.46;60.11;99180.78;4953161;28;98159;-77
2021/05/12 04:16:33;;;;;;;8.43;5.68;;;;;;;19.46;60.56;99183.44;4952477;28;97912;-76
2021/05/12 04:18:59;;;;;;;11.63;4.82;;;;;;;19.64;60.40;99189.78;4953027;28;97212;-77
2021/05/12 04:21:25;;;;;;;10.77;5.72;;;;;;;19.64;60.82;99194.25;4968577;28;96792;-77
2021/05/12 04:23:51;;;;;;;9.43;5.82;;;;;;;19.76;60.47;99195.03;4935188;28;101515;-77
2021/05/12 04:26:17;;;;;;;11.63;6.07;;;;;;;19.89;60.19;99183.09;4952442;28;98171;-77
2021/05/12 04:28:43;;;;;;;11.27;5.32;;;;;;;19.98;60.18;99191.25;4935700;28;96777;-77
2021/05/12 04:31:09;;;;;;;13.07;5.45;;;;;;;20.09;59.84;99193.78;4952862;28;96942;-77
2021/05/12 04:33:36;;;;;;;7.35;4.97;;;;;;;20.27;59.37;99193.91;4935470;28;97895;-77
2021/05/12 04:36:01;;;;;;;9.35;5.93;;;;;;;20.32;59.50;99195.16;4969091;28;97862;-77
2021/05/12 04:38:27;;;;;;;9.48;5.97;;;;;;;20.40;59.61;99197.13;4935351;28;96661;-77
2021/05/12 04:40:53;;;;;;;9.73;5.93;;;;;;;20.50;59.46;99192.59;4969417;28;96814;-79
2021/05/12 04:43:18;;;;;;;11.77;6.82;;;;;;;20.57;59.42;99198.25;4968638;28;101595;-77
2021/05/12 04:45:44;;;;;;;13.30;6.63;;;;;;;20.65;58.89;99201.03;4951303;28;100957;-78
2021/05/12 04:48:10;;;;;;;11.10;6.13;;;;;;;20.86;58.76;99192.84;4952203;28;96573;-78
2021/05/12 04:50:35;;;;;;;11.63;6.63;;;;;;;21.05;58.29;99207.94;4968237;28;97485;-78
2021/05/12 04:53:01;;;;;;;11.05;6.32;;;;;;;21.10;58.20;99199.50;4969310;28;98624;-78
2021/05/12 04:55:28;;;;;;;10.48;6.45;;;;;;;21.30;57.80;99201.09;4937674;28;101559;-79
2021/05/12 04:57:53;;;;;;;12.15;7.43;;;;;;;21.41;57.53;99192.94;4955580;28;97031;-78
2021/05/12 05:00:20;;;;;;;11.48;6.68;;;;;;;21.48;57.22;99196.69;4939325;28;97002;-78
2021/05/12 05:02:46;;;;;;;13.40;7.18;;;;;;;21.63;57.12;99207.69;4954988;28;98545;-78
2021/05/12 05:05:15;;;;;;;12.25;6.63;;;;;;;21.92;56.61;99204.00;4955650;28;101384;-78
2021/05/12 05:07:43;;;;;;;15.23;6.45;;;;;;;22.17;55.92;99198.91;4939246;28;96660;-78
2021/05/12 05:10:09;;;;;;;14.23;6.93;;;;;;;22.40;55.55;99201.94;4971752;28;96897;-78
2021/05/12 05:12:35;;;;;;;12.82;6.82;;;;;;;22.52;55.16;99198.03;4953971;28;100986;-78
2021/05/12 05:15:00;;;;;;;12.07;7.90;;;;;;;22.67;54.97;99206.34;4955137;28;101578;-78
2021/05/12 05:17:29;;;;;;;8.90;6.85;;;;;;;22.76;54.46;99206.22;4938459;28;97133;-80
2021/05/12 05:19:55;;;;;;;10.05;6.15;;;;;;;23.07;53.90;99197.75;4955251;28;96826;-79
2021/05/12 05:22:21;;;;;;;8.32;6.53;;;;;;;23.18;53.59;99204.63;4954858;28;101371;-78
2021/05/12 05:24:48;;;;;;;7.28;5.25;;;;;;;23.72;52.41;99206.06;4974103;28;98204;-78
2021/05/12 05:27:13;;;;;;;10.68;6.78;;;;;;;24.11;51.52;99202.75;4942302;28;96946;-79
2021/05/12 05:29:39;;;;;;;9.02;5.75;;;;;;;24.38;50.92;99214.19;4958101;28;97247;-79
2021/05/12 05:32:12;;;;;;;8.18;5.88;;;;;;;24.76;50.02;99207.31;4974385;28;100897;-78
2021/05/12 05:35:16;;;;;;;7.65;6.85;;;;;;;25.27;48.86;99209.72;4919839;28;97373;-79
2021/05/12 05:38:00;;;;;;;8.02;5.30;;;;;;;25.72;48.21;99213.56;4928346;28;96980;-79
2021/05/12 05:40:44;;;;;;;10.13;7.05;;;;;;;26.35;46.55;99211.63;4963823;28;96929;-79
2021/05/12 05:43:45;;;;;;;10.73;5.63;;;;;;;26.67;45.80;99207.03;4898289;28;97403;-79
2021/05/12 05:46:29;;;;;;;6.40;5.00;;;;;;;27.12;45.32;99202.53;4971325;28;97133;-80
2021/05/12 05:49:13;;;;;;;8.40;5.32;;;;;;;27.61;44.48;99208.19;4941453;28;96751;-79
2021/05/12 05:51:57;;;;;;;7.45;5.00;;;;;;;27.79;44.06;99202.41;4954996;28;96589;-80
2021/05/12 05:54:41;;;;;;;5.20;4.50;;;;;;;28.07;43.56;99204.34;4940143;28;97152;-80
2021/05/12 05:57:26;;;;;;;6.57;5.10;;;;;;;28.75;42.31;99200.19;4941379;28;97170;-79
2021/05/12 06:00:11;;;;;;;12.80;5.05;;;;;;;28.79;42.39;99197.94;4941226;28;96575;-79
2021/05/12 06:02:39;;;;;;;14.85;5.18;;;;;;;29.17;41.75;99203.81;4938787;28;96825;-80
2021/05/12 06:05:23;;;;;;;13.07;5.50;;;;;;;29.18;40.89;99208.19;4942658;28;97079;-79
2021/05/12 06:08:07;;;;;;;10.07;5.22;;;;;;;29.53;40.81;99205.44;4954100;28;97087;-80
2021/05/12 06:11:02;;;;;;;9.35;5.07;;;;;;;30.04;39.58;99213.09;4919593;28;97518;-80
2021/05/12 06:13:48;;;;;;;6.40;4.65;;;;;;;30.26;39.58;99204.88;4959680;28;96908;-79
2021/05/12 06:16:32;;;;;;;7.05;4.95;;;;;;;30.79;38.40;99203.00;4959677;28;97130;-81
2021/05/12 06:19:19;;;;;;;10.25;4.80;;;;;;;30.77;38.24;99210.47;4977248;28;97079;-81
2021/05/12 06:22:04;;;;;;;5.43;4.40;;;;;;;31.42;37.39;99201.66;4960365;28;97086;-80
2021/05/12 06:24:48;;;;;;;6.55;4.10;;;;;;;32.15;36.52;99206.72;4959907;28;96769;-79
2021/05/12 06:27:32;;;;;;;8.50;4.40;;;;;;;32.52;35.75;99209.56;4976285;28;97168;-80
2021/05/12 06:30:17;;;;;;;6.35;5.10;;;;;;;32.80;35.18;99203.69;4960092;28;97117;-80
2021/05/12 06:33:11;;;;;;;8.55;5.00;;;;;;;32.92;35.30;99210.06;4906817;28;96840;-80
2021/05/12 06:35:56;;;;;;;11.55;4.95;;;;;;;32.86;35.06;99213.66;4948140;28;96839;-80
2021/05/12 06:38:40;;;;;;;10.82;4.50;;;;;;;33.36;34.63;99210.84;4960435;28;97091;-80
2021/05/12 06:41:06;;;;;;;8.63;4.10;;;;;;;33.42;34.40;99209.13;4937168;28;100544;-80
2021/05/12 06:43:32;;;;;;;8.82;5.13;;;;;;;33.77;34.11;99212.91;4928633;28;96699;-81
2021/05/12 06:45:58;;;;;;;6.30;4.95;;;;;;;33.69;33.69;99206.94;4976202;28;96871;-80
2021/05/12 06:48:24;;;;;;;8.68;4.15;;;;;;;33.76;33.87;99211.22;4963095;28;101511;-79
2021/05/12 06:50:50;;;;;;;8.85;4.50;;;;;;;33.88;33.88;99213.97;4958810;28;97836;-80
2021/05/12 06:53:26;;;;;;;5.07;4.03;;;;;;;33.47;34.08;99218.25;4937606;28;96704;-79
2021/05/12 06:55:53;;;;;;;8.80;4.90;;;;;;;34.17;33.40;99209.63;4936674;28;97446;-80
2021/05/12 06:58:18;;;;;;;5.95;3.83;;;;;;;34.54;32.81;99212.19;4936924;28;98526;-80
2021/05/12 07:00:44;;;;;;;6.45;3.63;;;;;;;34.95;32.58;99210.44;4936457;28;101499;-80
2021/05/12 07:03:10;;;;;;;7.22;4.00;;;;;;;35.48;32.19;99208.59;4928676;28;96955;-80
2021/05/12 07:05:35;;;;;;;8.52;4.55;;;;;;;35.37;31.65;99210.28;4946409;28;96765;-81
2021/05/12 07:08:01;;;;;;;5.03;4.07;;;;;;;35.14;31.90;99203.81;4939694;28;101065;-80
2021/05/12 07:10:26;;;;;;;6.60;4.50;;;;;;;35.22;32.05;99197.16;4937150;28;101313;-80
2021/05/12 07:12:54;;;;;;;5.20;4.60;;;;;;;35.79;31.33;99201.88;4920423;28;97251;-80
2021/05/12 07:15:19;;;;;;;6.20;4.30;;;;;;;35.68;31.51;99197.28;4936982;28;96955;-80
2021/05/12 07:17:45;;;;;;;7.07;4.50;;;;;;;34.58;32.78;99209.84;4919708;28;101228;-81
2021/05/12 07:20:11;;;;;;;8.98;4.38;;;;;;;35.23;32.27;99200.69;4953587;28;98094;-80
2021/05/12 07:22:36;;;;;;;8.13;4.57;;;;;;;35.18;32.41;99204.16;4919500;28;97701;-80
2021/05/12 07:25:02;;;;;;;9.23;4.63;;;;;;;34.91;32.68;99198.38;4920139;28;96987;-80
2021/05/12 07:27:28;;;;;;;4.93;4.18;;;;;;;35.62;32.07;99198.28;4920823;28;101352;-80
2021/05/12 07:29:54;;;;;;;7.30;4.35;;;;;;;35.78;31.81;99201.06;4953042;28;98303;-80
2021/05/12 07:32:20;;;;;;;8.90;4.75;;;;;;;35.64;31.78;99202.41;4945712;28;96791;-79
2021/05/12 07:34:50;;;;;;;9.23;4.70;;;;;;;35.97;31.17;99196.22;4938560;28;96952;-80
2021/05/12 07:37:16;;;;;;;8.70;4.30;;;;;;;36.37;30.70;99200.75;4947605;28;98083;-80
2021/05/12 07:39:42;;;;;;;6.60;4.00;;;;;;;36.54;30.60;99197.22;4943807;28;100547;-81
2021/05/12 07:42:08;;;;;;;6.45;4.35;;;;;;;36.16;31.21;99202.31;4936631;28;97013;-80
2021/05/12 07:44:34;;;;;;;5.93;4.00;;;;;;;34.42;33.01;99208.63;4961243;28;97084;-80
2021/05/12 07:46:59;;;;;;;5.90;4.40;;;;;;;35.64;31.41;99213.34;4928069;28;101216;-80
2021/05/12 07:49:25;;;;;;;7.47;4.65;;;;;;;36.52;30.68;99210.28;4928325;28;101312;-80
2021/05/12 07:51:51;;;;;;;4.78;4.25;;;;;;;36.34;30.79;99208.63;4929669;28;97146;-79
2021/05/12 07:54:17;;;;;;;5.20;3.67;;;;;;;36.68;30.31;99204.84;4944690;28;96951;-80
2021/05/12 07:56:42;;;;;;;6.68;4.43;;;;;;;36.46;30.69;99209.38;4950935;28;101228;-80
2021/05/12 07:59:08;;;;;;;9.18;6.00;;;;;;;35.83;31.29;99200.31;4945765;28;101461;-80
2021/05/12 08:01:41;;;;;;;4.28;3.83;;;;;;;36.76;30.14;99213.69;4943440;28;96949;-81
2021/05/12 08:04:07;;;;;;;7.15;4.03;;;;;;;37.03;29.86;99222.91;4935224;28;96860;-81
2021/05/12 08:06:32;;;;;;;12.70;4.72;;;;;;;36.29;30.38;99214.81;4938530;28;101383;-80
2021/05/12 08:08:58;;;;;;;5.68;4.03;;;;;;;36.06;30.61;99214.97;4952672;28;97623;-80
2021/05/12 08:11:23;;;;;;;5.80;3.63;;;;;;;36.68;30.16;99204.84;4934785;28;97645;-80
2021/05/12 08:13:49;;;;;;;6.75;3.70;;;;;;;36.42;30.34;99209.06;4945356;28;97553;-81
2021/05/12 08:16:15;;;;;;;6.70;3.80;;;;;;;35.02;31.77;99216.59;4956976;28;97977;-81
2021/05/12 08:18:41;;;;;;;7.35;4.40;;;;;;;34.49;32.65;99229.22;4949713;28;101106;-81
2021/05/12 08:21:06;;;;;;;9.57;4.38;;;;;;;35.25;32.07;99223.94;4944994;28;96768;-80
2021/05/12 08:23:32;;;;;;;8.38;5.05;;;;;;;33.97;33.63;99228.09;4954858;28;97022;-79
2021/05/12 08:25:58;;;;;;;6.20;4.07;;;;;;;35.02;31.82;99226.66;4938039;28;102175;-80
2021/05/12 08:28:24;;;;;;;8.48;4.25;;;;;;;34.57;32.56;99247.16;4941440;28;101304;-80
2021/05/12 08:30:50;;;;;;;6.78;4.40;;;;;;;35.42;31.80;99247.75;4974438;28;97184;-80
2021/05/12 08:33:16;;;;;;;6.80;4.32;;;;;;;35.78;30.98;99242.00;4942413;28;97020;-80
2021/05/12 08:35:44;;;;;;;14.55;7.63;;;;;;;36.07;29.22;99235.72;4930639;28;101618;-79
2021/05/12 08:38:13;;;;;;;27.48;12.13;;;;;;;36.13;30.04;99235.59;4936202;28;101346;-78
2021/05/12 08:40:42;;;;;;;36.83;23.42;;;;;;;35.62;30.37;99237.31;4955791;28;97453;-78
2021/05/12 08:43:08;;;;;;;15.83;10.07;;;;;;;34.05;31.97;99227.00;4952614;28;97101;-76
2021/05/12 08:45:34;;;;;;;12.57;9.05;;;;;;;35.37;30.50;99229.38;4939008;28;101773;-76
2021/05/12 08:48:04;;;;;;;8.82;7.85;;;;;;;36.14;30.13;99230.94;4940921;28;101402;-76
2021/05/12 08:50:30;;;;;;;8.32;7.63;;;;;;;36.21;30.11;99220.69;4958459;28;97027;-76
2021/05/12 08:52:56;;;;;;;8.30;7.55;;;;;;;34.17;32.67;99227.84;4941365;28;97179;-76
2021/05/12 08:55:21;;;;;;;11.70;8.18;;;;;;;33.12;34.07;99227.00;4942126;28;98872;-77
2021/05/12 08:57:47;;;;;;;7.30;6.75;;;;;;;34.75;31.29;99231.78;4973450;28;100851;-79
2021/05/12 09:00:13;;;;;;;8.23;7.53;;;;;;;33.35;33.23;99228.25;4941360;28;97328;-76
2021/05/12 09:02:39;;;;;;;7.20;6.60;;;;;;;34.01;32.12;99235.59;4941496;28;97339;-76
2021/05/12 09:05:06;;;;;;;8.93;7.60;;;;;;;34.63;31.64;99234.50;4940371;28;101561;-76
2021/05/12 09:07:32;;;;;;;7.55;6.90;;;;;;;34.34;31.99;99228.84;4958751;28;97669;-75
2021/05/12 09:09:58;;;;;;;7.25;6.75;;;;;;;34.36;31.73;99232.16;4957844;28;97027;-76
2021/05/12 09:12:24;;;;;;;7.90;7.22;;;;;;;34.86;30.64;99223.59;4958583;28;97173;-76
2021/05/12 09:14:56;;;;;;;8.30;7.47;;;;;;;33.98;32.24;99225.16;4957668;28;101159;-75
2021/05/12 09:17:32;;;;;;;8.90;7.18;;;;;;;33.51;32.60;99224.06;4958784;28;101156;-76
2021/05/12 09:19:58;;;;;;;8.13;7.28;;;;;;;33.25;32.93;99225.19;4953537;28;97566;-77
2021/05/12 09:22:23;;;;;;;8.38;7.72;;;;;;;33.95;32.24;99224.81;4953394;28;97547;-77
2021/05/12 09:24:50;;;;;;;7.95;6.75;;;;;;;32.97;33.76;99222.97;4954059;28;101328;-78
2021/05/12 09:27:19;;;;;;;15.07;7.03;;;;;;;31.94;35.05;99224.16;4936655;28;100715;-79
2021/05/12 09:29:45;;;;;;;7.53;6.70;;;;;;;32.33;34.75;99219.53;4952794;28;97150;-83
2021/05/12 09:32:16;;;;;;;9.02;7.38;;;;;;;32.14;34.92;99221.31;4944842;28;97165;-81
2021/05/12 09:35:00;;;;;;;8.90;7.13;;;;;;;31.89;35.25;99216.63;4960800;28;98281;-81
2021/05/12 09:37:30;;;;;;;8.13;7.38;;;;;;;32.10;34.85;99215.50;4948799;28;99016;-80
2021/05/12 09:39:57;;;;;;;7.53;6.82;;;;;;;31.53;35.58;99204.53;4955033;28;97087;-81
2021/05/12 09:42:23;;;;;;;8.77;7.88;;;;;;;31.84;35.53;99212.91;4937542;28;98396;-82
2021/05/12 09:45:22;;;;;;;8.65;7.07;;;;;;;32.02;35.04;99210.31;4955368;28;98548;-82
2021/05/12 09:47:55;;;;;;;7.57;6.87;;;;;;;31.47;36.14;99216.19;4949430;28;101332;-81
2021/05/12 09:50:31;;;;;;;7.22;6.53;;;;;;;31.49;35.57;99210.56;4941143;28;97054;-82
2021/05/12 09:52:59;;;;;;;7.50;6.78;;;;;;;30.93;36.62;99217.38;4962173;28;97173;-82
2021/05/12 09:55:34;;;;;;;9.20;7.00;;;;;;;31.05;36.55;99217.56;4959846;28;101128;-82
2021/05/12 09:58:04;;;;;;;12.40;7.53;;;;;;;31.44;36.61;99215.81;4971313;28;97883;-79
2021/05/12 10:00:35;;;;;;;10.30;7.50;;;;;;;31.84;35.87;99213.75;4935545;28;96820;-81
2021/05/12 10:03:04;;;;;;;10.52;7.10;;;;;;;31.18;36.11;99212.09;4937268;28;97122;-82
2021/05/12 10:05:58;;;;;;;7.32;6.72;;;;;;;30.97;36.90;99212.34;4953459;28;101711;-80
2021/05/12 10:08:31;;;;;;;7.40;6.70;;;;;;;30.90;37.02;99206.97;4948045;28;98225;-81
2021/05/12 10:11:01;;;;;;;7.90;7.13;;;;;;;31.44;36.67;99207.66;4953468;28;97243;-80
2021/05/12 10:13:28;;;;;;;7.63;6.88;;;;;;;31.14;37.02;99205.44;4960061;28;97797;-80
2021/05/12 10:15:54;;;;;;;8.38;7.50;;;;;;;30.87;36.88;99207.38;4950654;28;100775;-79
2021/05/12 10:18:19;;;;;;;8.30;7.45;;;;;;;31.07;36.87;99212.78;4988266;28;97978;-80
2021/05/12 10:20:45;;;;;;;8.38;6.47;;;;;;;30.79;37.41;99213.84;4971357;28;96759;-79
2021/05/12 10:23:11;;;;;;;10.68;6.70;;;;;;;30.48;38.01;99211.72;4938317;28;96870;-79
2021/05/12 10:25:37;;;;;;;10.73;7.35;;;;;;;29.78;38.52;99213.88;4936720;28;101231;-80
2021/05/12 10:28:04;;;;;;;9.82;7.25;;;;;;;29.61;39.33;99212.53;4954092;28;101396;-80
2021/05/12 10:30:30;;;;;;;9.55;7.50;;;;;;;29.67;38.77;99217.16;4938180;28;96818;-79
2021/05/12 10:32:58;;;;;;;7.95;7.30;;;;;;;29.31;39.69;99219.06;4954258;28;96888;-79
2021/05/12 10:35:35;;;;;;;7.78;7.07;;;;;;;30.00;38.79;99218.09;4954455;28;101111;-79
2021/05/12 10:38:02;;;;;;;8.43;7.72;;;;;;;30.06;38.78;99210.22;4937384;28;101142;-80
2021/05/12 10:40:41;;;;;;;8.00;7.22;;;;;;;30.16;38.54;99203.34;4966980;28;98004;-80
2021/05/12 10:43:21;;;;;;;9.77;7.72;;;;;;;29.78;39.40;99206.59;4918029;28;97374;-79
2021/05/12 10:45:56;;;;;;;9.23;7.70;;;;;;;29.51;40.11;99205.63;4962889;28;98258;-79
2021/05/12 10:48:38;;;;;;;8.48;7.68;;;;;;;29.50;40.50;99209.38;4971056;28;98569;-84
2021/05/12 10:51:08;;;;;;;9.02;8.05;;;;;;;29.92;40.22;99199.34;4953946;28;97184;-84
2021/05/12 10:53:45;;;;;;;10.30;7.50;;;;;;;29.56;40.24;99202.34;4954069;28;96894;-83
2021/05/12 10:56:15;;;;;;;8.38;7.47;;;;;;;29.12;40.18;99200.88;4969065;28;100304;-86
2021/05/12 10:59:10;;;;;;;10.13;8.68;;;;;;;29.15;40.69;99194.22;4935615;28;101633;-83
2021/05/12 11:01:42;;;;;;;8.38;7.50;;;;;;;29.38;40.21;99194.78;4935547;28;96780;-84
2021/05/12 11:04:13;;;;;;;9.20;8.32;;;;;;;29.40;40.33;99191.88;4962904;28;96764;-84
2021/05/12 11:06:38;;;;;;;8.13;7.25;;;;;;;29.34;40.38;99193.50;4937203;28;101430;-84
2021/05/12 11:09:11;;;;;;;11.25;8.25;;;;;;;29.44;41.06;99193.13;4980794;28;98100;-84
2021/05/12 11:11:49;;;;;;;8.93;8.13;;;;;;;29.33;40.92;99187.28;4964487;28;96891;-82
2021/05/12 11:14:24;;;;;;;9.45;7.75;;;;;;;29.32;41.24;99187.47;4952884;28;96883;-82
2021/05/12 11:17:10;;;;;;;10.10;7.85;;;;;;;28.88;40.94;99181.38;4970803;28;97915;-82
2021/05/12 11:19:43;;;;;;;9.50;8.55;;;;;;;28.93;40.68;99175.38;4937021;28;101502;-81
2021/05/12 11:33:29;;;;;;;12.25;8.27;;;;;;;28.96;41.78;99166.88;4972341;28;97899;-81
2021/05/12 11:36:18;;;;;;;8.88;7.80;;;;;;;29.06;41.69;99171.94;4939894;28;97368;-79
2021/05/12 11:38:44;;;;;;;9.32;8.48;;;;;;;28.96;42.26;99169.59;4959201;28;100107;-82
2021/05/12 11:41:16;;;;;;;10.73;5.38;;;;;;;28.99;41.68;99171.06;4972036;28;98047;-81
2021/05/12 11:43:47;;;;;;;9.00;5.38;;;;;;;29.03;41.74;99169.63;4940363;28;97023;-81
2021/05/12 11:46:25;;;;;;;;;;;;;;;28.75;42.52;99161.56;4972534;28;97296;-81
2021/05/12 11:48:53;;;;;;;7.72;5.10;;;;;;;28.82;42.14;99157.84;4972791;28;98447;-82
2021/05/12 11:51:40;;;;;;;9.38;4.90;;;;;;;28.76;42.57;99149.72;4956052;28;101678;-81